sensor_id;sensor_type;location;lat;lon;timestamp;P1;durP1;ratioP1;P2;durP2;ratioP2
71320;SDS011;59118;54.322;18.576;2022-12-18T00:01:21;43.72;;;14.07;;
71320;SDS011;59118;54.322;18.576;2022-12-18T00:03:48;43.43;;;14.50;;
71320;SDS011;59118;54.322;18.576;2022-12-18T00:06:15;43.10;;;13.88;;
71320;SDS011;59118;54.322;18.576;2022-12-18T00:08:43;33.90;;;13.38;;
71320;SDS011;59118;54.322;18.576;2022-12-18T00:11:11;35.22;;;12.55;;
71320;SDS011;59118;54.322;18.576;2022-12-18T00:13:41;39.95;;;13.23;;
71320;SDS011;59118;54.322;18.576;2022-12-18T00:16:12;41.03;;;13.60;;
71320;SDS011;59118;54.322;18.576;2022-12-18T00:18:40;33.13;;;13.30;;
71320;SDS011;59118;54.322;18.576;2022-12-18T00:21:08;41.25;;;13.27;;
71320;SDS011;59118;54.322;18.576;2022-12-18T00:23:36;31.45;;;11.18;;
71320;SDS011;59118;54.322;18.576;2022-12-18T00:26:05;25.73;;;10.40;;
71320;SDS011;59118;54.322;18.576;2022-12-18T00:28:33;35.87;;;12.37;;
71320;SDS011;59118;54.322;18.576;2022-12-18T00:31:04;33.42;;;11.30;;
71320;SDS011;59118;54.322;18.576;2022-12-18T00:33:35;27.92;;;10.32;;
71320;SDS011;59118;54.322;18.576;2022-12-18T00:38:50;30.98;;;10.02;;
71320;SDS011;59118;54.322;18.576;2022-12-18T00:41:16;27.80;;;10.00;;
71320;SDS011;59118;54.322;18.576;2022-12-18T00:44:05;34.92;;;9.73;;
71320;SDS011;59118;54.322;18.576;2022-12-18T00:46:32;29.30;;;9.63;;
71320;SDS011;59118;54.322;18.576;2022-12-18T00:48:58;37.05;;;10.65;;
71320;SDS011;59118;54.322;18.576;2022-12-18T00:51:25;35.20;;;10.55;;
71320;SDS011;59118;54.322;18.576;2022-12-18T00:53:52;14.63;;;5.97;;
71320;SDS011;59118;54.322;18.576;2022-12-18T00:56:19;26.10;;;8.43;;
71320;SDS011;59118;54.322;18.576;2022-12-18T00:58:45;30.00;;;9.27;;
71320;SDS011;59118;54.322;18.576;2022-12-18T01:01:11;30.58;;;10.25;;
71320;SDS011;59118;54.322;18.576;2022-12-18T01:03:40;38.00;;;11.02;;
71320;SDS011;59118;54.322;18.576;2022-12-18T01:06:08;24.73;;;8.00;;
71320;SDS011;59118;54.322;18.576;2022-12-18T01:08:36;31.25;;;9.82;;
71320;SDS011;59118;54.322;18.576;2022-12-18T01:11:09;35.30;;;10.52;;
71320;SDS011;59118;54.322;18.576;2022-12-18T01:13:38;33.67;;;10.23;;
71320;SDS011;59118;54.322;18.576;2022-12-18T01:16:06;37.38;;;11.02;;
71320;SDS011;59118;54.322;18.576;2022-12-18T01:18:32;32.97;;;9.50;;
71320;SDS011;59118;54.322;18.576;2022-12-18T01:20:59;34.85;;;10.98;;
71320;SDS011;59118;54.322;18.576;2022-12-18T01:23:25;35.22;;;11.43;;
71320;SDS011;59118;54.322;18.576;2022-12-18T01:25:52;39.33;;;11.68;;
71320;SDS011;59118;54.322;18.576;2022-12-18T01:28:18;39.15;;;11.75;;
71320;SDS011;59118;54.322;18.576;2022-12-18T01:30:45;37.53;;;11.30;;
71320;SDS011;59118;54.322;18.576;2022-12-18T01:33:14;40.97;;;12.30;;
71320;SDS011;59118;54.322;18.576;2022-12-18T01:35:43;41.17;;;12.75;;
71320;SDS011;59118;54.322;18.576;2022-12-18T01:38:10;31.25;;;9.73;;
71320;SDS011;59118;54.322;18.576;2022-12-18T01:40:37;39.00;;;12.43;;
71320;SDS011;59118;54.322;18.576;2022-12-18T01:43:03;37.40;;;12.17;;
71320;SDS011;59118;54.322;18.576;2022-12-18T01:45:30;44.25;;;13.48;;
71320;SDS011;59118;54.322;18.576;2022-12-18T01:48:03;39.88;;;13.05;;
71320;SDS011;59118;54.322;18.576;2022-12-18T01:50:34;37.75;;;12.65;;
71320;SDS011;59118;54.322;18.576;2022-12-18T01:53:10;27.33;;;9.13;;
71320;SDS011;59118;54.322;18.576;2022-12-18T01:55:43;40.27;;;12.13;;
71320;SDS011;59118;54.322;18.576;2022-12-18T01:58:17;45.15;;;14.27;;
71320;SDS011;59118;54.322;18.576;2022-12-18T02:00:45;43.45;;;13.23;;
71320;SDS011;59118;54.322;18.576;2022-12-18T02:03:15;46.22;;;14.35;;
71320;SDS011;59118;54.322;18.576;2022-12-18T02:08:24;39.30;;;13.80;;
71320;SDS011;59118;54.322;18.576;2022-12-18T02:16:24;39.95;;;12.80;;
71320;SDS011;59118;54.322;18.576;2022-12-18T02:18:56;42.28;;;13.30;;
71320;SDS011;59118;54.322;18.576;2022-12-18T02:24:21;37.42;;;11.55;;
71320;SDS011;59118;54.322;18.576;2022-12-18T02:27:11;44.42;;;14.38;;
71320;SDS011;59118;54.322;18.576;2022-12-18T02:29:39;41.75;;;12.20;;
71320;SDS011;59118;54.322;18.576;2022-12-18T02:32:11;37.70;;;11.98;;
71320;SDS011;59118;54.322;18.576;2022-12-18T02:34:40;41.83;;;13.60;;
71320;SDS011;59118;54.322;18.576;2022-12-18T02:37:09;46.55;;;12.95;;
71320;SDS011;59118;54.322;18.576;2022-12-18T02:39:40;47.80;;;14.18;;
71320;SDS011;59118;54.322;18.576;2022-12-18T02:42:08;39.40;;;12.55;;
71320;SDS011;59118;54.322;18.576;2022-12-18T02:44:35;39.40;;;13.25;;
71320;SDS011;59118;54.322;18.576;2022-12-18T02:47:13;41.70;;;12.67;;
71320;SDS011;59118;54.322;18.576;2022-12-18T02:49:57;41.30;;;12.52;;
71320;SDS011;59118;54.322;18.576;2022-12-18T02:58:06;39.55;;;12.00;;
71320;SDS011;59118;54.322;18.576;2022-12-18T03:01:01;36.73;;;10.97;;
71320;SDS011;59118;54.322;18.576;2022-12-18T03:03:36;32.42;;;10.43;;
71320;SDS011;59118;54.322;18.576;2022-12-18T03:06:14;32.25;;;10.98;;
71320;SDS011;59118;54.322;18.576;2022-12-18T03:08:44;36.30;;;11.00;;
71320;SDS011;59118;54.322;18.576;2022-12-18T03:11:16;32.70;;;11.05;;
71320;SDS011;59118;54.322;18.576;2022-12-18T03:14:02;33.80;;;10.53;;
71320;SDS011;59118;54.322;18.576;2022-12-18T03:16:30;30.52;;;10.43;;
71320;SDS011;59118;54.322;18.576;2022-12-18T03:19:04;32.03;;;11.43;;
71320;SDS011;59118;54.322;18.576;2022-12-18T03:21:34;30.02;;;10.18;;
71320;SDS011;59118;54.322;18.576;2022-12-18T03:24:07;25.33;;;8.52;;
71320;SDS011;59118;54.322;18.576;2022-12-18T03:26:34;25.37;;;9.07;;
71320;SDS011;59118;54.322;18.576;2022-12-18T03:29:04;25.77;;;9.88;;
71320;SDS011;59118;54.322;18.576;2022-12-18T03:31:34;33.58;;;10.20;;
71320;SDS011;59118;54.322;18.576;2022-12-18T03:34:02;27.13;;;9.73;;
71320;SDS011;59118;54.322;18.576;2022-12-18T03:36:32;30.20;;;10.15;;
71320;SDS011;59118;54.322;18.576;2022-12-18T03:38:58;28.73;;;10.17;;
71320;SDS011;59118;54.322;18.576;2022-12-18T03:41:44;34.72;;;10.45;;
71320;SDS011;59118;54.322;18.576;2022-12-18T03:44:17;27.20;;;9.73;;
71320;SDS011;59118;54.322;18.576;2022-12-18T03:53:05;26.80;;;8.77;;
71320;SDS011;59118;54.322;18.576;2022-12-18T03:55:39;27.38;;;9.20;;
71320;SDS011;59118;54.322;18.576;2022-12-18T03:58:13;27.70;;;9.38;;
71320;SDS011;59118;54.322;18.576;2022-12-18T04:00:42;25.60;;;9.52;;
71320;SDS011;59118;54.322;18.576;2022-12-18T04:03:18;28.17;;;8.45;;
71320;SDS011;59118;54.322;18.576;2022-12-18T04:05:51;29.00;;;9.63;;
71320;SDS011;59118;54.322;18.576;2022-12-18T04:08:20;24.17;;;8.43;;
71320;SDS011;59118;54.322;18.576;2022-12-18T04:10:49;23.67;;;8.02;;
71320;SDS011;59118;54.322;18.576;2022-12-18T04:13:27;27.30;;;8.63;;
71320;SDS011;59118;54.322;18.576;2022-12-18T04:15:55;22.42;;;8.20;;
71320;SDS011;59118;54.322;18.576;2022-12-18T04:18:22;20.33;;;8.23;;
71320;SDS011;59118;54.322;18.576;2022-12-18T04:20:48;26.17;;;8.63;;
71320;SDS011;59118;54.322;18.576;2022-12-18T04:23:15;27.48;;;10.30;;
71320;SDS011;59118;54.322;18.576;2022-12-18T04:25:41;20.70;;;7.97;;
71320;SDS011;59118;54.322;18.576;2022-12-18T04:28:10;22.63;;;8.65;;
71320;SDS011;59118;54.322;18.576;2022-12-18T04:30:36;21.97;;;8.17;;
71320;SDS011;59118;54.322;18.576;2022-12-18T04:33:08;30.38;;;9.50;;
71320;SDS011;59118;54.322;18.576;2022-12-18T04:35:41;20.30;;;7.18;;
71320;SDS011;59118;54.322;18.576;2022-12-18T04:38:08;20.77;;;8.02;;
71320;SDS011;59118;54.322;18.576;2022-12-18T04:40:35;21.58;;;7.70;;
71320;SDS011;59118;54.322;18.576;2022-12-18T04:43:02;24.40;;;8.10;;
71320;SDS011;59118;54.322;18.576;2022-12-18T04:45:30;25.40;;;9.07;;
71320;SDS011;59118;54.322;18.576;2022-12-18T04:48:00;28.13;;;9.20;;
71320;SDS011;59118;54.322;18.576;2022-12-18T04:50:28;23.48;;;8.23;;
71320;SDS011;59118;54.322;18.576;2022-12-18T04:52:55;20.77;;;7.63;;
71320;SDS011;59118;54.322;18.576;2022-12-18T04:55:22;25.33;;;8.70;;
71320;SDS011;59118;54.322;18.576;2022-12-18T04:57:50;22.40;;;8.18;;
71320;SDS011;59118;54.322;18.576;2022-12-18T05:00:17;23.90;;;9.35;;
71320;SDS011;59118;54.322;18.576;2022-12-18T05:02:43;23.55;;;8.40;;
71320;SDS011;59118;54.322;18.576;2022-12-18T05:05:13;45.75;;;9.00;;
71320;SDS011;59118;54.322;18.576;2022-12-18T05:07:39;23.17;;;7.90;;
71320;SDS011;59118;54.322;18.576;2022-12-18T05:10:06;20.27;;;7.20;;
71320;SDS011;59118;54.322;18.576;2022-12-18T05:12:35;22.38;;;8.02;;
71320;SDS011;59118;54.322;18.576;2022-12-18T05:15:21;20.90;;;7.82;;
71320;SDS011;59118;54.322;18.576;2022-12-18T05:17:48;25.13;;;8.70;;
71320;SDS011;59118;54.322;18.576;2022-12-18T05:20:14;23.30;;;7.80;;
71320;SDS011;59118;54.322;18.576;2022-12-18T05:22:41;21.23;;;7.55;;
71320;SDS011;59118;54.322;18.576;2022-12-18T05:25:07;21.15;;;8.05;;
71320;SDS011;59118;54.322;18.576;2022-12-18T05:27:34;23.05;;;7.78;;
71320;SDS011;59118;54.322;18.576;2022-12-18T05:30:01;20.42;;;8.10;;
71320;SDS011;59118;54.322;18.576;2022-12-18T05:32:27;22.83;;;8.10;;
71320;SDS011;59118;54.322;18.576;2022-12-18T05:34:54;21.30;;;8.02;;
71320;SDS011;59118;54.322;18.576;2022-12-18T05:37:23;20.55;;;8.13;;
71320;SDS011;59118;54.322;18.576;2022-12-18T05:39:49;21.42;;;7.30;;
71320;SDS011;59118;54.322;18.576;2022-12-18T05:42:16;17.90;;;7.10;;
71320;SDS011;59118;54.322;18.576;2022-12-18T05:44:43;16.67;;;5.63;;
71320;SDS011;59118;54.322;18.576;2022-12-18T05:47:09;21.17;;;8.40;;
71320;SDS011;59118;54.322;18.576;2022-12-18T05:49:36;23.65;;;8.65;;
71320;SDS011;59118;54.322;18.576;2022-12-18T05:52:02;17.83;;;7.07;;
71320;SDS011;59118;54.322;18.576;2022-12-18T05:54:29;22.30;;;7.80;;
71320;SDS011;59118;54.322;18.576;2022-12-18T05:56:55;17.60;;;6.20;;
71320;SDS011;59118;54.322;18.576;2022-12-18T05:59:22;22.88;;;7.90;;
71320;SDS011;59118;54.322;18.576;2022-12-18T06:01:48;22.05;;;8.75;;
71320;SDS011;59118;54.322;18.576;2022-12-18T06:04:15;21.30;;;8.95;;
71320;SDS011;59118;54.322;18.576;2022-12-18T06:06:44;19.83;;;6.75;;
71320;SDS011;59118;54.322;18.576;2022-12-18T06:09:11;21.27;;;7.20;;
71320;SDS011;59118;54.322;18.576;2022-12-18T06:11:38;24.05;;;8.35;;
71320;SDS011;59118;54.322;18.576;2022-12-18T06:14:06;21.17;;;8.18;;
71320;SDS011;59118;54.322;18.576;2022-12-18T06:16:34;24.38;;;8.25;;
71320;SDS011;59118;54.322;18.576;2022-12-18T06:19:04;20.33;;;7.15;;
71320;SDS011;59118;54.322;18.576;2022-12-18T06:21:31;18.47;;;8.03;;
71320;SDS011;59118;54.322;18.576;2022-12-18T06:23:59;19.38;;;7.40;;
71320;SDS011;59118;54.322;18.576;2022-12-18T06:26:25;21.48;;;8.10;;
71320;SDS011;59118;54.322;18.576;2022-12-18T06:28:53;21.65;;;7.88;;
71320;SDS011;59118;54.322;18.576;2022-12-18T06:31:20;22.90;;;7.72;;
71320;SDS011;59118;54.322;18.576;2022-12-18T06:33:47;15.23;;;4.83;;
71320;SDS011;59118;54.322;18.576;2022-12-18T06:36:13;27.27;;;8.25;;
71320;SDS011;59118;54.322;18.576;2022-12-18T06:38:41;19.02;;;7.25;;
71320;SDS011;59118;54.322;18.576;2022-12-18T06:41:14;19.52;;;7.90;;
71320;SDS011;59118;54.322;18.576;2022-12-18T06:43:45;19.95;;;7.20;;
71320;SDS011;59118;54.322;18.576;2022-12-18T06:46:20;23.03;;;7.50;;
71320;SDS011;59118;54.322;18.576;2022-12-18T06:48:48;19.95;;;7.28;;
71320;SDS011;59118;54.322;18.576;2022-12-18T06:51:16;17.77;;;7.00;;
71320;SDS011;59118;54.322;18.576;2022-12-18T06:53:44;20.35;;;8.48;;
71320;SDS011;59118;54.322;18.576;2022-12-18T06:56:10;18.80;;;6.90;;
71320;SDS011;59118;54.322;18.576;2022-12-18T06:58:38;19.37;;;7.00;;
71320;SDS011;59118;54.322;18.576;2022-12-18T07:01:06;18.63;;;8.40;;
71320;SDS011;59118;54.322;18.576;2022-12-18T07:03:34;23.00;;;7.95;;
71320;SDS011;59118;54.322;18.576;2022-12-18T07:06:01;21.00;;;7.78;;
71320;SDS011;59118;54.322;18.576;2022-12-18T07:08:29;18.67;;;7.50;;
71320;SDS011;59118;54.322;18.576;2022-12-18T07:10:56;22.33;;;8.37;;
71320;SDS011;59118;54.322;18.576;2022-12-18T07:13:25;24.98;;;7.75;;
71320;SDS011;59118;54.322;18.576;2022-12-18T07:16:07;18.38;;;7.90;;
71320;SDS011;59118;54.322;18.576;2022-12-18T07:18:44;20.10;;;7.50;;
71320;SDS011;59118;54.322;18.576;2022-12-18T07:21:12;21.15;;;6.47;;
71320;SDS011;59118;54.322;18.576;2022-12-18T07:23:41;22.43;;;8.13;;
71320;SDS011;59118;54.322;18.576;2022-12-18T07:26:11;18.77;;;6.47;;
71320;SDS011;59118;54.322;18.576;2022-12-18T07:28:39;19.50;;;7.05;;
71320;SDS011;59118;54.322;18.576;2022-12-18T07:31:08;21.52;;;7.05;;
71320;SDS011;59118;54.322;18.576;2022-12-18T07:33:42;17.90;;;6.93;;
71320;SDS011;59118;54.322;18.576;2022-12-18T07:36:10;17.30;;;6.47;;
71320;SDS011;59118;54.322;18.576;2022-12-18T07:38:37;19.58;;;6.88;;
71320;SDS011;59118;54.322;18.576;2022-12-18T07:41:04;20.52;;;6.80;;
71320;SDS011;59118;54.322;18.576;2022-12-18T07:43:37;17.83;;;6.32;;
71320;SDS011;59118;54.322;18.576;2022-12-18T07:46:08;19.20;;;7.47;;
71320;SDS011;59118;54.322;18.576;2022-12-18T07:48:35;16.13;;;6.10;;
71320;SDS011;59118;54.322;18.576;2022-12-18T07:51:02;18.58;;;7.10;;
71320;SDS011;59118;54.322;18.576;2022-12-18T07:53:30;16.30;;;6.40;;
71320;SDS011;59118;54.322;18.576;2022-12-18T07:56:01;15.30;;;5.93;;
71320;SDS011;59118;54.322;18.576;2022-12-18T07:58:51;11.88;;;5.13;;
71320;SDS011;59118;54.322;18.576;2022-12-18T08:01:17;16.80;;;5.70;;
71320;SDS011;59118;54.322;18.576;2022-12-18T08:03:46;14.68;;;5.85;;
71320;SDS011;59118;54.322;18.576;2022-12-18T08:06:13;14.43;;;5.32;;
71320;SDS011;59118;54.322;18.576;2022-12-18T08:08:40;13.70;;;4.70;;
71320;SDS011;59118;54.322;18.576;2022-12-18T08:11:08;15.30;;;5.80;;
71320;SDS011;59118;54.322;18.576;2022-12-18T08:13:34;15.63;;;4.90;;
71320;SDS011;59118;54.322;18.576;2022-12-18T08:16:02;12.15;;;5.15;;
71320;SDS011;59118;54.322;18.576;2022-12-18T08:18:34;14.02;;;5.50;;
71320;SDS011;59118;54.322;18.576;2022-12-18T08:21:11;14.65;;;5.38;;
71320;SDS011;59118;54.322;18.576;2022-12-18T08:23:44;14.00;;;4.97;;
71320;SDS011;59118;54.322;18.576;2022-12-18T08:26:21;10.07;;;4.27;;
71320;SDS011;59118;54.322;18.576;2022-12-18T08:28:50;12.45;;;5.15;;
71320;SDS011;59118;54.322;18.576;2022-12-18T08:31:17;16.40;;;5.80;;
71320;SDS011;59118;54.322;18.576;2022-12-18T08:33:44;15.60;;;5.95;;
71320;SDS011;59118;54.322;18.576;2022-12-18T08:36:13;15.40;;;5.28;;
71320;SDS011;59118;54.322;18.576;2022-12-18T08:38:42;16.17;;;6.40;;
71320;SDS011;59118;54.322;18.576;2022-12-18T08:41:11;16.45;;;5.40;;
71320;SDS011;59118;54.322;18.576;2022-12-18T08:43:39;14.88;;;5.82;;
71320;SDS011;59118;54.322;18.576;2022-12-18T08:46:27;14.45;;;5.53;;
71320;SDS011;59118;54.322;18.576;2022-12-18T08:48:58;14.45;;;5.70;;
71320;SDS011;59118;54.322;18.576;2022-12-18T08:51:25;13.97;;;5.37;;
71320;SDS011;59118;54.322;18.576;2022-12-18T08:53:52;16.17;;;5.70;;
71320;SDS011;59118;54.322;18.576;2022-12-18T08:56:18;15.48;;;5.40;;
71320;SDS011;59118;54.322;18.576;2022-12-18T08:58:45;12.60;;;4.82;;
71320;SDS011;59118;54.322;18.576;2022-12-18T09:01:12;15.13;;;5.30;;
71320;SDS011;59118;54.322;18.576;2022-12-18T09:03:39;16.10;;;6.10;;
71320;SDS011;59118;54.322;18.576;2022-12-18T09:06:07;13.73;;;5.45;;
71320;SDS011;59118;54.322;18.576;2022-12-18T09:08:35;16.15;;;5.97;;
71320;SDS011;59118;54.322;18.576;2022-12-18T09:11:03;14.57;;;5.93;;
71320;SDS011;59118;54.322;18.576;2022-12-18T09:13:30;15.23;;;6.25;;
71320;SDS011;59118;54.322;18.576;2022-12-18T09:15:56;15.70;;;6.30;;
71320;SDS011;59118;54.322;18.576;2022-12-18T09:18:23;15.82;;;6.07;;
71320;SDS011;59118;54.322;18.576;2022-12-18T09:20:50;18.98;;;6.15;;
71320;SDS011;59118;54.322;18.576;2022-12-18T09:23:19;17.90;;;6.47;;
71320;SDS011;59118;54.322;18.576;2022-12-18T09:25:45;15.65;;;6.22;;
71320;SDS011;59118;54.322;18.576;2022-12-18T09:28:13;17.73;;;6.47;;
71320;SDS011;59118;54.322;18.576;2022-12-18T09:30:41;16.67;;;5.82;;
71320;SDS011;59118;54.322;18.576;2022-12-18T09:33:09;18.50;;;6.47;;
71320;SDS011;59118;54.322;18.576;2022-12-18T09:35:36;15.10;;;5.65;;
71320;SDS011;59118;54.322;18.576;2022-12-18T09:38:03;16.63;;;6.38;;
71320;SDS011;59118;54.322;18.576;2022-12-18T09:40:33;16.33;;;5.87;;
71320;SDS011;59118;54.322;18.576;2022-12-18T09:43:03;18.60;;;6.80;;
71320;SDS011;59118;54.322;18.576;2022-12-18T09:45:37;17.35;;;5.72;;
71320;SDS011;59118;54.322;18.576;2022-12-18T09:48:52;18.05;;;6.60;;
71320;SDS011;59118;54.322;18.576;2022-12-18T09:51:02;16.08;;;6.40;;
71320;SDS011;59118;54.322;18.576;2022-12-18T09:53:32;17.10;;;6.73;;
71320;SDS011;59118;54.322;18.576;2022-12-18T09:56:01;17.08;;;6.20;;
71320;SDS011;59118;54.322;18.576;2022-12-18T10:01:26;17.48;;;6.05;;
71320;SDS011;59118;54.322;18.576;2022-12-18T10:04:07;15.82;;;5.68;;
71320;SDS011;59118;54.322;18.576;2022-12-18T10:09:09;15.82;;;5.50;;
71320;SDS011;59118;54.322;18.576;2022-12-18T10:14:56;14.48;;;4.85;;
71320;SDS011;59118;54.322;18.576;2022-12-18T10:17:55;14.50;;;4.20;;
71320;SDS011;59118;54.322;18.576;2022-12-18T10:20:48;11.27;;;4.47;;
71320;SDS011;59118;54.322;18.576;2022-12-18T10:23:32;12.05;;;4.03;;
71320;SDS011;59118;54.322;18.576;2022-12-18T10:26:04;12.77;;;3.92;;
71320;SDS011;59118;54.322;18.576;2022-12-18T10:28:33;15.02;;;5.13;;
71320;SDS011;59118;54.322;18.576;2022-12-18T10:31:06;15.25;;;4.72;;
71320;SDS011;59118;54.322;18.576;2022-12-18T10:33:33;14.93;;;5.17;;
71320;SDS011;59118;54.322;18.576;2022-12-18T10:36:00;12.20;;;4.60;;
71320;SDS011;59118;54.322;18.576;2022-12-18T10:38:28;13.57;;;4.57;;
71320;SDS011;59118;54.322;18.576;2022-12-18T10:40:59;14.77;;;4.50;;
71320;SDS011;59118;54.322;18.576;2022-12-18T10:43:31;18.33;;;5.47;;
71320;SDS011;59118;54.322;18.576;2022-12-18T10:51:34;14.13;;;4.30;;
71320;SDS011;59118;54.322;18.576;2022-12-18T10:54:04;13.80;;;4.80;;
71320;SDS011;59118;54.322;18.576;2022-12-18T10:56:49;12.80;;;4.63;;
71320;SDS011;59118;54.322;18.576;2022-12-18T10:59:16;13.30;;;5.03;;
71320;SDS011;59118;54.322;18.576;2022-12-18T11:04:18;15.88;;;5.53;;
71320;SDS011;59118;54.322;18.576;2022-12-18T11:06:59;17.25;;;4.65;;
71320;SDS011;59118;54.322;18.576;2022-12-18T11:09:33;11.80;;;4.22;;
71320;SDS011;59118;54.322;18.576;2022-12-18T11:12:25;13.57;;;4.77;;
71320;SDS011;59118;54.322;18.576;2022-12-18T11:14:51;12.85;;;4.70;;
71320;SDS011;59118;54.322;18.576;2022-12-18T11:23:27;12.43;;;4.35;;
71320;SDS011;59118;54.322;18.576;2022-12-18T11:25:56;13.40;;;4.77;;
71320;SDS011;59118;54.322;18.576;2022-12-18T11:31:19;11.27;;;4.20;;
71320;SDS011;59118;54.322;18.576;2022-12-18T11:34:00;12.40;;;4.20;;
71320;SDS011;59118;54.322;18.576;2022-12-18T11:36:48;12.95;;;4.63;;
71320;SDS011;59118;54.322;18.576;2022-12-18T11:41:52;12.63;;;4.50;;
71320;SDS011;59118;54.322;18.576;2022-12-18T11:44:44;10.82;;;3.88;;
71320;SDS011;59118;54.322;18.576;2022-12-18T11:47:25;13.15;;;4.28;;
71320;SDS011;59118;54.322;18.576;2022-12-18T11:49:59;10.70;;;3.70;;
71320;SDS011;59118;54.322;18.576;2022-12-18T11:52:38;10.43;;;3.43;;
71320;SDS011;59118;54.322;18.576;2022-12-18T11:55:12;12.82;;;3.83;;
71320;SDS011;59118;54.322;18.576;2022-12-18T12:00:18;13.77;;;4.72;;
71320;SDS011;59118;54.322;18.576;2022-12-18T12:13:47;11.15;;;3.85;;
71320;SDS011;59118;54.322;18.576;2022-12-18T12:16:28;11.30;;;3.42;;
71320;SDS011;59118;54.322;18.576;2022-12-18T12:19:15;12.23;;;3.80;;
71320;SDS011;59118;54.322;18.576;2022-12-18T12:24:49;13.93;;;4.60;;
71320;SDS011;59118;54.322;18.576;2022-12-18T12:30:20;11.23;;;3.55;;
71320;SDS011;59118;54.322;18.576;2022-12-18T12:35:47;14.05;;;3.67;;
71320;SDS011;59118;54.322;18.576;2022-12-18T12:38:32;10.80;;;4.13;;
71320;SDS011;59118;54.322;18.576;2022-12-18T12:41:18;12.55;;;4.40;;
71320;SDS011;59118;54.322;18.576;2022-12-18T12:44:07;10.95;;;3.85;;
71320;SDS011;59118;54.322;18.576;2022-12-18T12:46:37;10.57;;;3.50;;
71320;SDS011;59118;54.322;18.576;2022-12-18T12:49:10;7.80;;;2.92;;
71320;SDS011;59118;54.322;18.576;2022-12-18T12:51:40;11.27;;;3.47;;
71320;SDS011;59118;54.322;18.576;2022-12-18T12:54:15;11.35;;;3.95;;
71320;SDS011;59118;54.322;18.576;2022-12-18T13:02:35;11.25;;;3.95;;
71320;SDS011;59118;54.322;18.576;2022-12-18T13:05:30;12.55;;;4.03;;
71320;SDS011;59118;54.322;18.576;2022-12-18T13:08:22;13.50;;;3.65;;
71320;SDS011;59118;54.322;18.576;2022-12-18T13:11:00;12.60;;;4.45;;
71320;SDS011;59118;54.322;18.576;2022-12-18T13:14:24;11.30;;;3.97;;
71320;SDS011;59118;54.322;18.576;2022-12-18T13:20:03;17.88;;;5.22;;
71320;SDS011;59118;54.322;18.576;2022-12-18T13:22:44;15.85;;;5.07;;
71320;SDS011;59118;54.322;18.576;2022-12-18T13:38:23;14.02;;;4.18;;
71320;SDS011;59118;54.322;18.576;2022-12-18T13:43:43;19.42;;;5.40;;
71320;SDS011;59118;54.322;18.576;2022-12-18T13:46:28;14.30;;;4.63;;
71320;SDS011;59118;54.322;18.576;2022-12-18T13:48:58;12.60;;;4.57;;
71320;SDS011;59118;54.322;18.576;2022-12-18T13:51:28;16.33;;;4.93;;
71320;SDS011;59118;54.322;18.576;2022-12-18T13:53:58;14.37;;;4.63;;
71320;SDS011;59118;54.322;18.576;2022-12-18T13:56:29;17.73;;;4.85;;
71320;SDS011;59118;54.322;18.576;2022-12-18T13:59:20;15.30;;;5.00;;
71320;SDS011;59118;54.322;18.576;2022-12-18T14:01:52;15.18;;;4.95;;
71320;SDS011;59118;54.322;18.576;2022-12-18T14:07:02;18.93;;;6.20;;
71320;SDS011;59118;54.322;18.576;2022-12-18T14:09:35;13.40;;;4.45;;
71320;SDS011;59118;54.322;18.576;2022-12-18T14:12:04;17.00;;;5.03;;
71320;SDS011;59118;54.322;18.576;2022-12-18T14:14:51;9.98;;;3.70;;
71320;SDS011;59118;54.322;18.576;2022-12-18T14:17:20;20.20;;;5.95;;
71320;SDS011;59118;54.322;18.576;2022-12-18T14:19:48;19.10;;;5.97;;
71320;SDS011;59118;54.322;18.576;2022-12-18T14:22:21;18.17;;;4.78;;
71320;SDS011;59118;54.322;18.576;2022-12-18T14:27:46;14.02;;;5.13;;
71320;SDS011;59118;54.322;18.576;2022-12-18T14:33:08;24.33;;;6.53;;
71320;SDS011;59118;54.322;18.576;2022-12-18T14:35:41;6.55;;;2.45;;
71320;SDS011;59118;54.322;18.576;2022-12-18T14:38:26;21.35;;;7.05;;
71320;SDS011;59118;54.322;18.576;2022-12-18T14:40:58;18.63;;;5.75;;
71320;SDS011;59118;54.322;18.576;2022-12-18T14:43:27;18.25;;;5.68;;
71320;SDS011;59118;54.322;18.576;2022-12-18T14:45:55;15.37;;;5.83;;
71320;SDS011;59118;54.322;18.576;2022-12-18T14:51:44;10.65;;;3.40;;
71320;SDS011;59118;54.322;18.576;2022-12-18T14:56:22;20.98;;;7.15;;
71320;SDS011;59118;54.322;18.576;2022-12-18T14:58:50;23.33;;;6.70;;
71320;SDS011;59118;54.322;18.576;2022-12-18T15:01:29;24.33;;;7.50;;
71320;SDS011;59118;54.322;18.576;2022-12-18T15:03:58;17.80;;;5.68;;
71320;SDS011;59118;54.322;18.576;2022-12-18T15:09:06;21.88;;;6.50;;
71320;SDS011;59118;54.322;18.576;2022-12-18T15:11:54;18.23;;;6.30;;
71320;SDS011;59118;54.322;18.576;2022-12-18T15:14:41;22.33;;;6.93;;
71320;SDS011;59118;54.322;18.576;2022-12-18T15:20:01;20.20;;;7.15;;
71320;SDS011;59118;54.322;18.576;2022-12-18T15:22:30;20.80;;;7.43;;
71320;SDS011;59118;54.322;18.576;2022-12-18T15:25:02;24.00;;;7.70;;
71320;SDS011;59118;54.322;18.576;2022-12-18T15:27:31;24.73;;;8.52;;
71320;SDS011;59118;54.322;18.576;2022-12-18T15:30:11;6.15;;;2.33;;
71320;SDS011;59118;54.322;18.576;2022-12-18T15:32:44;17.98;;;6.50;;
71320;SDS011;59118;54.322;18.576;2022-12-18T15:37:37;27.40;;;8.80;;
71320;SDS011;59118;54.322;18.576;2022-12-18T15:40:16;23.65;;;7.85;;
71320;SDS011;59118;54.322;18.576;2022-12-18T15:42:47;17.73;;;5.72;;
71320;SDS011;59118;54.322;18.576;2022-12-18T15:45:33;21.67;;;7.10;;
71320;SDS011;59118;54.322;18.576;2022-12-18T15:47:59;22.13;;;7.47;;
71320;SDS011;59118;54.322;18.576;2022-12-18T15:50:26;15.97;;;5.43;;
71320;SDS011;59118;54.322;18.576;2022-12-18T15:52:54;20.05;;;6.28;;
71320;SDS011;59118;54.322;18.576;2022-12-18T15:55:24;22.90;;;8.43;;
71320;SDS011;59118;54.322;18.576;2022-12-18T15:58:11;28.58;;;9.30;;
71320;SDS011;59118;54.322;18.576;2022-12-18T16:00:41;17.08;;;5.38;;
71320;SDS011;59118;54.322;18.576;2022-12-18T16:03:08;27.87;;;8.10;;
71320;SDS011;59118;54.322;18.576;2022-12-18T16:05:35;24.38;;;7.45;;
71320;SDS011;59118;54.322;18.576;2022-12-18T16:08:02;18.80;;;5.80;;
71320;SDS011;59118;54.322;18.576;2022-12-18T16:10:28;27.63;;;9.00;;
71320;SDS011;59118;54.322;18.576;2022-12-18T16:12:55;25.00;;;8.85;;
71320;SDS011;59118;54.322;18.576;2022-12-18T16:15:21;25.73;;;10.83;;
71320;SDS011;59118;54.322;18.576;2022-12-18T16:17:50;23.95;;;8.23;;
71320;SDS011;59118;54.322;18.576;2022-12-18T16:20:19;24.30;;;8.18;;
71320;SDS011;59118;54.322;18.576;2022-12-18T16:22:47;22.45;;;7.15;;
71320;SDS011;59118;54.322;18.576;2022-12-18T16:25:18;34.00;;;10.55;;
71320;SDS011;59118;54.322;18.576;2022-12-18T16:27:46;28.63;;;9.03;;
71320;SDS011;59118;54.322;18.576;2022-12-18T16:30:14;35.67;;;10.80;;
71320;SDS011;59118;54.322;18.576;2022-12-18T16:32:41;33.75;;;9.75;;
71320;SDS011;59118;54.322;18.576;2022-12-18T16:35:12;37.30;;;11.95;;
71320;SDS011;59118;54.322;18.576;2022-12-18T16:37:39;8.15;;;4.22;;
71320;SDS011;59118;54.322;18.576;2022-12-18T16:40:07;18.13;;;6.73;;
71320;SDS011;59118;54.322;18.576;2022-12-18T16:42:39;22.98;;;8.45;;
71320;SDS011;59118;54.322;18.576;2022-12-18T16:45:07;24.60;;;8.27;;